createdAt,value
2018-01-10T00:01:09.328Z,4.30
2018-01-10T00:03:37.548Z,4.30
2018-01-10T00:06:05.018Z,4.30
2018-01-10T00:08:32.508Z,4.30
2018-01-10T00:11:00.766Z,4.30
2018-01-10T00:13:28.350Z,4.30
2018-01-10T00:15:57.318Z,4.30
2018-01-10T00:18:24.800Z,4.30
2018-01-10T00:20:53.032Z,4.30
2018-01-10T00:23:20.515Z,4.30
2018-01-10T00:25:47.993Z,4.40
2018-01-10T00:28:16.249Z,4.40
2018-01-10T00:30:43.738Z,4.30
2018-01-10T00:33:12.008Z,4.40
2018-01-10T00:35:40.240Z,4.40
2018-01-10T00:38:07.732Z,4.40
2018-01-10T00:40:35.977Z,4.40
2018-01-10T00:43:03.469Z,4.40
2018-01-10T00:45:31.716Z,4.40
2018-01-10T00:47:59.195Z,4.40
2018-01-10T00:50:27.463Z,4.40
2018-01-10T00:52:55.729Z,4.40
2018-01-10T00:55:23.221Z,4.40
2018-01-10T00:57:51.469Z,4.40
2018-01-10T01:00:18.954Z,4.30
2018-01-10T01:02:47.196Z,4.30
2018-01-10T01:05:14.680Z,4.30
2018-01-10T01:07:42.924Z,4.30
2018-01-10T01:10:11.176Z,4.30
2018-01-10T01:12:38.652Z,4.30
2018-01-10T01:15:06.115Z,4.30
2018-01-10T01:17:33.586Z,4.30
2018-01-10T01:20:01.079Z,4.20
2018-01-10T01:22:28.559Z,4.20
2018-01-10T01:24:56.036Z,4.20
2018-01-10T01:27:23.519Z,4.20
2018-01-10T01:29:50.999Z,4.20
2018-01-10T01:32:19.229Z,4.10
2018-01-10T01:34:46.743Z,4.10
2018-01-10T01:37:14.215Z,4.10
2018-01-10T01:39:41.705Z,4.10
2018-01-10T01:42:09.177Z,4.20
2018-01-10T01:44:36.669Z,4.10
2018-01-10T01:47:04.908Z,4.10
2018-01-10T01:49:32.404Z,4.10
2018-01-10T01:51:59.867Z,4.10
2018-01-10T01:54:27.363Z,4.10
2018-01-10T01:56:54.852Z,4.10
2018-01-10T01:59:22.334Z,4.10
2018-01-10T02:01:49.812Z,4.10
2018-01-10T02:04:17.307Z,4.10
2018-01-10T02:06:44.771Z,4.10
2018-01-10T02:09:12.259Z,4.10
2018-01-10T02:11:40.517Z,4.10
2018-01-10T02:14:08.763Z,4.00
2018-01-10T02:16:36.240Z,4.00
2018-01-10T02:19:05.288Z,4.00
2018-01-10T02:21:32.772Z,4.00
2018-01-10T02:24:00.252Z,4.00
2018-01-10T02:26:27.720Z,4.00
2018-01-10T02:28:55.200Z,4.00
2018-01-10T02:31:23.449Z,4.00
2018-01-10T02:33:52.527Z,4.00
2018-01-10T02:36:20.015Z,4.00
2018-01-10T02:38:48.263Z,3.90
2018-01-10T02:41:15.738Z,4.00
2018-01-10T02:43:43.203Z,3.90
2018-01-10T02:46:11.480Z,3.90
2018-01-10T02:48:38.940Z,3.90
2018-01-10T02:51:07.199Z,3.90
2018-01-10T02:53:34.668Z,3.90
2018-01-10T02:56:02.160Z,3.90
2018-01-10T02:58:29.639Z,4.00
2018-01-10T03:00:57.134Z,3.90
2018-01-10T03:03:24.599Z,3.90
2018-01-10T03:05:52.080Z,3.90
2018-01-10T03:08:19.556Z,3.90
2018-01-10T03:10:47.031Z,3.90
2018-01-10T03:13:14.499Z,3.90
2018-01-10T03:15:41.988Z,3.80
2018-01-10T03:18:09.467Z,3.90
2018-01-10T03:20:37.716Z,3.90
2018-01-10T03:23:05.183Z,3.90
2018-01-10T03:25:33.436Z,3.90
2018-01-10T03:28:01.672Z,3.90
2018-01-10T03:30:29.159Z,3.90
2018-01-10T03:32:56.635Z,3.90
2018-01-10T03:35:24.336Z,3.90
2018-01-10T03:37:51.803Z,3.80
2018-01-10T03:40:19.339Z,3.90
2018-01-10T03:42:47.579Z,3.80
2018-01-10T03:45:15.047Z,3.80
2018-01-10T03:47:44.060Z,3.80
2018-01-10T03:50:12.285Z,3.80
2018-01-10T03:52:39.775Z,3.80
2018-01-10T03:55:07.258Z,3.80
2018-01-10T03:57:35.504Z,3.80
2018-01-10T04:00:03.744Z,3.80
2018-01-10T04:02:31.227Z,3.90
2018-01-10T04:04:59.479Z,3.80
2018-01-10T04:07:26.975Z,3.90
2018-01-10T04:09:54.461Z,3.90
2018-01-10T04:12:22.710Z,3.90
2018-01-10T04:14:50.944Z,3.80
2018-01-10T04:17:18.439Z,3.80
2018-01-10T04:19:45.947Z,3.90
2018-01-10T04:22:13.476Z,3.80
2018-01-10T04:24:41.713Z,3.80
2018-01-10T04:27:09.206Z,3.80
2018-01-10T04:29:37.443Z,3.90
2018-01-10T04:32:04.920Z,3.80
2018-01-10T04:34:32.390Z,3.90
2018-01-10T04:37:00.630Z,3.90
2018-01-10T04:39:28.110Z,3.90
2018-01-10T04:41:55.596Z,3.90
2018-01-10T04:44:23.828Z,3.90
2018-01-10T04:46:51.311Z,3.90
2018-01-10T04:49:18.789Z,4.00
2018-01-10T04:51:47.049Z,3.90
2018-01-10T04:54:14.521Z,3.90
2018-01-10T04:56:42.756Z,4.00
2018-01-10T04:59:10.237Z,4.00
2018-01-10T05:01:37.716Z,4.00
2018-01-10T05:04:06.911Z,4.00
2018-01-10T05:06:34.399Z,4.00
2018-01-10T05:09:01.880Z,4.00
2018-01-10T05:11:29.343Z,4.00
2018-01-10T05:13:56.830Z,4.00
2018-01-10T05:16:25.065Z,4.00
2018-01-10T05:18:52.567Z,4.00
2018-01-10T05:21:20.803Z,3.90
2018-01-10T05:23:49.421Z,3.90
2018-01-10T05:26:16.890Z,3.90
2018-01-10T05:28:45.161Z,3.90
2018-01-10T05:31:12.719Z,3.90
2018-01-10T05:33:40.213Z,4.00
2018-01-10T05:36:07.687Z,4.00
2018-01-10T05:38:35.183Z,3.90
2018-01-10T05:41:02.652Z,4.00
2018-01-10T05:43:30.892Z,4.00
2018-01-10T05:46:05.040Z,4.00
2018-01-10T05:48:33.291Z,4.00
2018-01-10T05:51:00.776Z,4.00
2018-01-10T05:53:29.064Z,4.00
2018-01-10T05:55:57.317Z,4.00
2018-01-10T05:58:41.168Z,4.00
2018-01-10T06:01:09.432Z,4.00
2018-01-10T06:03:36.918Z,4.00
2018-01-10T06:06:05.356Z,4.00
2018-01-10T06:08:32.852Z,4.00
2018-01-10T06:11:01.088Z,4.00
2018-01-10T06:13:28.571Z,4.00
2018-01-10T06:15:56.804Z,3.90
2018-01-10T06:18:25.861Z,3.90
2018-01-10T06:20:53.351Z,3.90
2018-01-10T06:23:20.846Z,3.90
2018-01-10T06:25:48.315Z,3.90
2018-01-10T06:28:16.568Z,3.90
2018-01-10T06:30:45.555Z,3.90
2018-01-10T06:33:13.463Z,3.90
2018-01-10T06:35:41.701Z,3.90
2018-01-10T06:38:09.175Z,3.90
2018-01-10T06:40:37.419Z,4.00
2018-01-10T06:43:04.893Z,4.00
2018-01-10T06:45:32.378Z,4.00
2018-01-10T06:48:00.635Z,4.00
2018-01-10T06:50:28.126Z,4.00
2018-01-10T06:52:56.361Z,4.00
2018-01-10T06:55:23.855Z,3.90
2018-01-10T06:57:52.140Z,4.00
2018-01-10T07:00:21.324Z,4.00
2018-01-10T07:02:49.593Z,3.90
2018-01-10T07:05:18.860Z,3.90
2018-01-10T07:07:46.698Z,3.90
2018-01-10T07:10:14.171Z,3.90
2018-01-10T07:12:41.659Z,3.90
2018-01-10T07:15:10.667Z,3.90
2018-01-10T07:17:38.921Z,4.00
2018-01-10T07:20:06.412Z,3.90
2018-01-10T07:22:35.540Z,3.90
2018-01-10T07:25:03.036Z,3.90
2018-01-10T07:27:30.518Z,3.90
2018-01-10T07:29:58.797Z,4.00
2018-01-10T07:32:27.031Z,4.00
2018-01-10T07:34:54.508Z,4.00
2018-01-10T07:37:21.982Z,4.00
2018-01-10T07:39:50.231Z,4.00
2018-01-10T07:42:17.717Z,3.90
2018-01-10T07:44:46.003Z,4.00
2018-01-10T07:47:14.247Z,4.00
2018-01-10T07:49:42.672Z,4.00
2018-01-10T07:52:10.162Z,4.00
2018-01-10T07:54:37.665Z,4.00
2018-01-10T07:57:05.915Z,4.10
2018-01-10T07:59:33.430Z,4.00
2018-01-10T08:02:00.909Z,4.10
2018-01-10T08:04:28.411Z,4.10
2018-01-10T08:06:56.700Z,4.20
2018-01-10T08:09:24.935Z,4.20
2018-01-10T08:11:52.943Z,4.20
2018-01-10T08:14:21.186Z,4.40
2018-01-10T08:16:49.289Z,4.40
2018-01-10T08:19:17.525Z,4.50
2018-01-10T08:21:45.024Z,4.50
2018-01-10T08:24:13.267Z,4.70
2018-01-10T08:26:40.763Z,4.70
2018-01-10T08:29:08.247Z,4.70
2018-01-10T08:31:35.756Z,4.80
2018-01-10T08:34:03.228Z,4.80
2018-01-10T08:36:31.490Z,5.00
2018-01-10T08:38:58.961Z,5.00
2018-01-10T08:41:27.215Z,5.10
2018-01-10T08:43:54.691Z,5.10
2018-01-10T08:46:22.948Z,5.20
2018-01-10T08:48:50.517Z,5.20
2018-01-10T08:51:18.015Z,5.30
2018-01-10T08:53:45.477Z,5.40
2018-01-10T08:56:12.979Z,5.50
2018-01-10T08:58:40.458Z,5.50
2018-01-10T09:01:07.935Z,5.50
2018-01-10T09:03:35.429Z,5.60
2018-01-10T09:06:02.938Z,5.60
2018-01-10T09:08:31.212Z,5.60
2018-01-10T09:10:59.464Z,5.60
2018-01-10T09:13:26.965Z,5.60
2018-01-10T09:15:54.428Z,5.60
2018-01-10T09:18:21.906Z,5.70
2018-01-10T09:20:49.403Z,5.70
2018-01-10T09:23:17.656Z,5.70
2018-01-10T09:25:45.127Z,5.70
2018-01-10T09:28:12.599Z,5.80
2018-01-10T09:30:40.104Z,5.80
2018-01-10T09:33:07.566Z,5.80
2018-01-10T09:35:35.086Z,5.80
2018-01-10T09:38:03.340Z,5.90
2018-01-10T09:40:32.320Z,5.90
2018-01-10T09:42:59.803Z,5.90
2018-01-10T09:45:27.287Z,6.00
2018-01-10T09:47:54.779Z,6.00
2018-01-10T09:50:22.247Z,6.00
2018-01-10T09:52:49.745Z,6.10
2018-01-10T09:55:17.982Z,6.10
2018-01-10T09:57:45.468Z,6.10
2018-01-10T10:00:12.950Z,6.10
2018-01-10T10:02:40.451Z,6.10
2018-01-10T10:05:07.913Z,6.10
2018-01-10T10:07:35.409Z,6.20
2018-01-10T10:10:03.641Z,6.30
2018-01-10T10:12:31.114Z,6.30
2018-01-10T10:14:58.587Z,6.40
2018-01-10T10:17:28.492Z,6.40
2018-01-10T10:19:55.976Z,6.40
2018-01-10T10:22:24.210Z,6.50
2018-01-10T10:24:52.565Z,6.50
2018-01-10T10:27:20.049Z,6.50
2018-01-10T10:29:47.528Z,6.60
2018-01-10T10:32:15.011Z,6.50
2018-01-10T10:34:43.256Z,6.40
2018-01-10T10:37:10.728Z,6.40
2018-01-10T10:39:38.991Z,6.30
2018-01-10T10:42:06.548Z,6.30
2018-01-10T10:44:34.845Z,6.30
2018-01-10T10:47:03.125Z,6.30
2018-01-10T10:49:32.080Z,6.30
2018-01-10T10:51:59.556Z,6.30
2018-01-10T10:54:27.048Z,6.30
2018-01-10T10:56:54.513Z,6.40
2018-01-10T10:59:22.000Z,6.40
2018-01-10T11:01:50.235Z,6.60
2018-01-10T11:04:17.747Z,6.60
2018-01-10T11:06:45.215Z,6.60
2018-01-10T11:09:12.700Z,6.80
2018-01-10T11:11:40.932Z,7.00
2018-01-10T11:14:08.440Z,7.00
2018-01-10T11:16:35.925Z,7.10
2018-01-10T11:19:03.423Z,7.10
2018-01-10T11:21:30.902Z,7.20
2018-01-10T11:23:59.171Z,7.30
2018-01-10T11:26:27.428Z,7.30
2018-01-10T11:28:54.921Z,7.30
2018-01-10T11:31:22.399Z,7.20
2018-01-10T11:33:49.901Z,7.20
2018-01-10T11:36:17.462Z,7.20
2018-01-10T11:38:44.941Z,7.20
2018-01-10T11:41:13.211Z,7.20
2018-01-10T11:43:40.683Z,7.20
2018-01-10T11:46:08.956Z,7.30
2018-01-10T11:48:37.179Z,7.30
2018-01-10T11:51:04.674Z,7.30
2018-01-10T11:53:32.924Z,7.50
2018-01-10T11:56:00.411Z,7.50
2018-01-10T11:58:28.674Z,7.50
2018-01-10T12:00:56.825Z,7.50
2018-01-10T12:03:24.305Z,7.50
2018-01-10T12:05:51.780Z,7.50
2018-01-10T12:08:20.025Z,7.50
2018-01-10T12:10:47.527Z,7.50
2018-01-10T12:13:15.903Z,7.50
2018-01-10T12:15:44.180Z,7.50
2018-01-10T12:18:11.712Z,7.50
2018-01-10T12:20:39.203Z,7.50
2018-01-10T12:23:07.453Z,7.50
2018-01-10T12:25:34.939Z,7.50
2018-01-10T12:28:02.439Z,7.50
2018-01-10T12:30:29.933Z,7.50
2018-01-10T12:32:57.436Z,7.50
2018-01-10T12:35:24.924Z,7.50
2018-01-10T12:37:52.415Z,7.50
2018-01-10T12:40:20.681Z,7.60
2018-01-10T12:42:48.216Z,7.50
2018-01-10T12:45:15.721Z,7.60
2018-01-10T12:47:43.211Z,7.60
2018-01-10T12:50:10.729Z,7.70
2018-01-10T12:52:38.967Z,7.80
2018-01-10T12:55:06.456Z,7.80
2018-01-10T12:57:34.735Z,8.00
2018-01-10T13:00:02.975Z,8.00
2018-01-10T13:02:32.808Z,8.00
2018-01-10T13:05:00.263Z,8.00
2018-01-10T13:07:27.768Z,8.00
2018-01-10T13:09:55.277Z,8.00
2018-01-10T13:12:23.714Z,7.90
2018-01-10T13:14:51.197Z,7.90
2018-01-10T13:17:18.680Z,7.80
2018-01-10T13:19:46.931Z,7.60
2018-01-10T13:22:14.411Z,7.60
2018-01-10T13:24:41.972Z,7.50
2018-01-10T13:27:09.554Z,7.40
2018-01-10T13:29:37.796Z,7.30
2018-01-10T13:32:05.403Z,7.30
2018-01-10T13:34:32.883Z,7.30
2018-01-10T13:37:00.372Z,7.20
2018-01-10T13:39:27.840Z,7.20
2018-01-10T13:41:55.332Z,7.20
2018-01-10T13:44:22.808Z,7.20
2018-01-10T13:46:50.328Z,7.10
2018-01-10T13:49:19.306Z,7.20
2018-01-10T13:51:46.808Z,7.20
2018-01-10T13:54:14.296Z,7.20
2018-01-10T13:56:41.768Z,7.00
2018-01-10T13:59:09.260Z,7.10
2018-01-10T14:01:37.536Z,7.10
2018-01-10T14:04:05.013Z,7.10
2018-01-10T14:06:32.505Z,7.00
2018-01-10T14:08:59.993Z,7.00
2018-01-10T14:11:27.501Z,7.00
2018-01-10T14:13:55.016Z,7.00
2018-01-10T14:16:23.260Z,7.00
2018-01-10T14:18:50.757Z,7.00
2018-01-10T14:21:19.008Z,6.90
2018-01-10T14:23:46.503Z,6.90
2018-01-10T14:26:13.976Z,6.90
2018-01-10T14:31:34.168Z,6.90
2018-01-10T14:34:01.648Z,6.80
2018-01-10T14:36:29.127Z,6.80
2018-01-10T14:38:56.624Z,6.80
2018-01-10T14:41:24.848Z,6.70
2018-01-10T14:43:52.343Z,6.70
2018-01-10T14:46:19.815Z,6.70
2018-01-10T14:48:48.072Z,6.70
2018-01-10T14:51:15.543Z,6.70
2018-01-10T14:53:43.832Z,6.60
2018-01-10T14:56:12.064Z,6.60
2018-01-10T14:58:39.651Z,6.60
2018-01-10T15:01:08.621Z,6.50
2018-01-10T15:03:36.116Z,6.50
2018-01-10T15:06:04.348Z,6.50
2018-01-10T15:08:31.852Z,6.50
2018-01-10T15:11:00.088Z,6.40
2018-01-10T15:13:27.567Z,6.40
2018-01-10T15:15:55.051Z,6.40
2018-01-10T15:18:23.391Z,6.40
2018-01-10T15:20:50.868Z,6.30
2018-01-10T15:23:19.130Z,6.30
2018-01-10T15:25:46.615Z,6.30
2018-01-10T15:28:14.872Z,6.30
2018-01-10T15:30:42.334Z,6.30
2018-01-10T15:33:10.597Z,6.20
2018-01-10T15:35:38.067Z,6.20
2018-01-10T15:38:06.312Z,6.20
2018-01-10T15:40:33.800Z,6.20
2018-01-10T15:43:02.036Z,6.20
2018-01-10T15:45:29.548Z,6.10
2018-01-10T15:47:57.812Z,6.10
2018-01-10T15:50:26.068Z,6.10
2018-01-10T15:52:53.543Z,6.10
2018-01-10T15:55:22.004Z,6.00
2018-01-10T15:57:49.477Z,6.10
2018-01-10T16:00:16.952Z,6.00
2018-01-10T16:02:45.184Z,6.00
2018-01-10T16:05:12.713Z,6.00
2018-01-10T16:07:40.184Z,6.00
2018-01-10T16:10:07.679Z,6.00
2018-01-10T16:12:35.146Z,5.90
2018-01-10T16:15:03.392Z,5.90
2018-01-10T16:17:31.655Z,5.90
2018-01-10T16:19:59.136Z,5.90
2018-01-10T16:22:27.236Z,5.90
2018-01-10T16:24:55.499Z,5.80
2018-01-10T16:27:22.971Z,5.90
2018-01-10T16:29:51.233Z,5.80
2018-01-10T16:32:18.694Z,5.80
2018-01-10T16:34:46.942Z,5.80
2018-01-10T16:37:14.447Z,5.80
2018-01-10T16:39:41.896Z,5.80
2018-01-10T16:42:10.162Z,5.80
2018-01-10T16:44:37.700Z,5.80
2018-01-10T16:47:05.171Z,5.80
2018-01-10T16:49:32.641Z,5.80
2018-01-10T16:52:00.896Z,5.80
2018-01-10T16:54:28.390Z,5.80
2018-01-10T16:56:56.639Z,5.80
2018-01-10T16:59:27.247Z,5.70
2018-01-10T17:01:55.490Z,5.80
2018-01-10T17:04:23.704Z,5.80
2018-01-10T17:06:51.196Z,5.80
2018-01-10T17:09:19.440Z,5.80
2018-01-10T17:11:46.919Z,5.80
2018-01-10T17:14:15.171Z,5.80
2018-01-10T17:16:42.646Z,5.70
2018-01-10T17:19:10.124Z,5.80
2018-01-10T17:21:38.488Z,5.70
2018-01-10T17:24:05.959Z,5.70
2018-01-10T17:26:34.228Z,5.70
2018-01-10T17:29:02.490Z,5.70
2018-01-10T17:31:29.963Z,5.70
2018-01-10T17:33:58.200Z,5.70
2018-01-10T17:36:25.672Z,5.70
2018-01-10T17:38:53.168Z,5.70
2018-01-10T17:41:21.415Z,5.70
2018-01-10T17:43:48.879Z,5.70
2018-01-10T17:46:17.124Z,5.80
2018-01-10T17:48:44.609Z,5.80
2018-01-10T17:51:12.092Z,5.80
2018-01-10T17:53:39.562Z,5.80
2018-01-10T17:56:07.823Z,5.90
2018-01-10T17:58:35.301Z,5.90
2018-01-10T18:01:02.805Z,6.00
2018-01-10T18:03:30.272Z,6.00
2018-01-10T18:05:57.761Z,6.10
2018-01-10T18:08:25.256Z,6.10
2018-01-10T18:10:52.744Z,6.20
2018-01-10T18:13:20.252Z,6.20
2018-01-10T18:15:47.731Z,6.20
2018-01-10T18:18:15.219Z,6.10
2018-01-10T18:20:42.708Z,6.10
2018-01-10T18:23:10.180Z,6.10
2018-01-10T18:25:37.660Z,6.10
2018-01-10T18:28:05.140Z,6.10
2018-01-10T18:30:32.612Z,6.10
2018-01-10T18:33:00.943Z,6.10
2018-01-10T18:35:28.432Z,6.00
2018-01-10T18:37:55.913Z,6.10
2018-01-10T18:40:24.169Z,6.10
2018-01-10T18:42:51.648Z,6.10
2018-01-10T18:45:19.877Z,6.10
2018-01-10T18:47:47.364Z,6.10
2018-01-10T18:50:14.851Z,6.10
2018-01-10T18:52:42.355Z,6.10
2018-01-10T18:55:09.828Z,6.10
2018-01-10T18:57:37.331Z,6.00
2018-01-10T19:00:04.812Z,6.00
2018-01-10T19:02:32.287Z,6.00
2018-01-10T19:04:59.801Z,6.00
2018-01-10T19:07:28.067Z,6.00
2018-01-10T19:09:56.312Z,6.00
2018-01-10T19:12:23.812Z,6.00
2018-01-10T19:14:51.318Z,6.00
2018-01-10T19:17:19.495Z,5.90
2018-01-10T19:19:46.971Z,5.90
2018-01-10T19:22:14.456Z,5.90
2018-01-10T19:24:42.714Z,5.90
2018-01-10T19:27:11.113Z,5.90
2018-01-10T19:29:38.616Z,5.90
2018-01-10T19:32:06.103Z,5.80
2018-01-10T19:34:33.600Z,5.90
2018-01-10T19:37:01.085Z,5.90
2018-01-10T19:39:28.591Z,5.80
2018-01-10T19:41:56.852Z,5.80
2018-01-10T19:44:24.346Z,5.80
2018-01-10T19:46:52.589Z,5.80
2018-01-10T19:49:20.096Z,5.80
2018-01-10T19:51:48.735Z,5.80
2018-01-10T19:54:17.004Z,5.80
2018-01-10T19:56:45.264Z,5.80
2018-01-10T19:59:12.771Z,5.80
2018-01-10T20:01:40.259Z,5.80
2018-01-10T20:04:08.501Z,5.80
2018-01-10T20:06:36.388Z,5.80
2018-01-10T20:09:03.889Z,5.80
2018-01-10T20:11:31.390Z,5.80
2018-01-10T20:13:58.915Z,5.80
2018-01-10T20:16:26.431Z,5.80
2018-01-10T20:18:53.928Z,5.70
2018-01-10T20:21:21.403Z,5.80
2018-01-10T20:23:49.682Z,5.70
2018-01-10T20:26:17.970Z,5.70
2018-01-10T20:28:46.224Z,5.70
2018-01-10T20:31:14.173Z,5.70
2018-01-10T20:33:42.433Z,5.70
2018-01-10T20:36:09.941Z,5.70
2018-01-10T20:38:38.206Z,5.70
2018-01-10T20:41:06.456Z,5.60
2018-01-10T20:43:33.958Z,5.70
2018-01-10T20:46:02.242Z,5.60
2018-01-10T20:48:30.617Z,5.60
2018-01-10T20:50:58.134Z,5.60
2018-01-10T20:53:26.924Z,5.60
2018-01-10T20:55:54.419Z,5.60
2018-01-10T20:58:21.975Z,5.60
2018-01-10T21:00:50.215Z,5.60
2018-01-10T21:03:17.689Z,5.60
2018-01-10T21:05:45.944Z,5.60
2018-01-10T21:08:13.421Z,5.50
2018-01-10T21:10:41.671Z,5.50
2018-01-10T21:13:10.673Z,5.50
2018-01-10T21:15:38.160Z,5.50
2018-01-10T21:18:06.446Z,5.50
2018-01-10T21:20:34.734Z,5.50
2018-01-10T21:23:02.221Z,5.50
2018-01-10T21:25:29.706Z,5.50
2018-01-10T21:27:57.184Z,5.50
2018-01-10T21:30:25.419Z,5.40
2018-01-10T21:32:52.891Z,5.40
2018-01-10T21:35:20.619Z,5.30
2018-01-10T21:37:48.088Z,5.30
2018-01-10T21:40:15.576Z,5.30
2018-01-10T21:42:48.375Z,5.30
2018-01-10T21:45:16.611Z,5.30
2018-01-10T21:47:44.987Z,5.30
2018-01-10T21:50:12.484Z,5.30
2018-01-10T21:52:41.623Z,5.20
2018-01-10T21:55:09.123Z,5.20
2018-01-10T21:57:36.592Z,5.20
2018-01-10T22:00:04.848Z,5.20
2018-01-10T22:02:32.323Z,5.20
2018-01-10T22:04:59.811Z,5.20
2018-01-10T22:07:27.284Z,5.10
2018-01-10T22:09:54.749Z,5.10
2018-01-10T22:12:22.272Z,5.00
2018-01-10T22:14:50.508Z,5.00
2018-01-10T22:17:18.009Z,4.90
2018-01-10T22:19:46.272Z,4.90
2018-01-10T22:22:15.968Z,4.90
2018-01-10T22:24:43.451Z,4.90
2018-01-10T22:27:11.721Z,4.80
2018-01-10T22:29:39.964Z,4.80
2018-01-10T22:32:09.371Z,4.80
2018-01-10T22:34:37.617Z,4.90
2018-01-10T22:37:05.101Z,4.80
2018-01-10T22:39:33.624Z,4.90
2018-01-10T22:42:01.872Z,4.90
2018-01-10T22:44:29.377Z,4.90
2018-01-10T22:46:56.890Z,4.90
2018-01-10T22:49:24.383Z,4.90
2018-01-10T22:51:51.920Z,4.90
2018-01-10T22:54:20.158Z,4.90
2018-01-10T22:56:48.633Z,4.90
2018-01-10T22:59:16.100Z,4.80
2018-01-10T23:01:43.580Z,4.80
2018-01-10T23:04:11.051Z,4.70
2018-01-10T23:06:39.327Z,4.70
2018-01-10T23:09:07.563Z,4.70
2018-01-10T23:11:35.062Z,4.70
2018-01-10T23:14:03.300Z,4.60
2018-01-10T23:16:30.780Z,4.60
2018-01-10T23:18:58.357Z,4.60
2018-01-10T23:21:26.598Z,4.50
2018-01-10T23:23:54.084Z,4.50
2018-01-10T23:26:23.099Z,4.50
2018-01-10T23:28:50.551Z,4.50
2018-01-10T23:31:18.776Z,4.40
2018-01-10T23:33:46.254Z,4.40
2018-01-10T23:36:13.719Z,4.40
2018-01-10T23:38:41.974Z,4.20
2018-01-10T23:41:09.435Z,4.20
2018-01-10T23:43:36.924Z,4.20
2018-01-10T23:46:06.853Z,4.20
2018-01-10T23:51:28.638Z,4.20
2018-01-10T23:53:56.106Z,4.20
2018-01-10T23:56:23.612Z,4.20
2018-01-10T23:58:51.876Z,4.00
